sensor_id;sensor_type;location;lat;lon;timestamp;pressure;altitude;pressure_sealevel;temperature;humidity
69351;BME280;57106;51.446;-2.606;2023-12-28T00:11:00;100137.57;;;11.55;70.26
69351;BME280;57106;51.446;-2.606;2023-12-28T00:25:33;100146.74;;;11.47;72.47
69351;BME280;57106;51.446;-2.606;2023-12-28T00:27:58;100149.22;;;11.61;72.35
69351;BME280;57106;51.446;-2.606;2023-12-28T00:30:24;100144.30;;;11.59;72.43
69351;BME280;57106;51.446;-2.606;2023-12-28T00:32:49;100150.63;;;11.55;72.55
69351;BME280;57106;51.446;-2.606;2023-12-28T00:35:14;100144.86;;;11.63;72.57
69351;BME280;57106;51.446;-2.606;2023-12-28T00:40:06;100158.21;;;11.62;72.34
69351;BME280;57106;51.446;-2.606;2023-12-28T01:23:44;100215.33;;;11.47;76.21
69351;BME280;57106;51.446;-2.606;2023-12-28T01:26:14;100206.81;;;11.32;78.74
69351;BME280;57106;51.446;-2.606;2023-12-28T01:50:31;100205.63;;;10.74;83.35
69351;BME280;57106;51.446;-2.606;2023-12-28T01:57:41;100196.95;;;10.86;82.91
69351;BME280;57106;51.446;-2.606;2023-12-28T02:00:07;100198.51;;;10.77;83.41
69351;BME280;57106;51.446;-2.606;2023-12-28T02:02:32;100195.23;;;10.71;83.44
69351;BME280;57106;51.446;-2.606;2023-12-28T02:04:58;100193.15;;;10.77;82.34
69351;BME280;57106;51.446;-2.606;2023-12-28T02:12:14;100222.63;;;10.75;83.37
69351;BME280;57106;51.446;-2.606;2023-12-28T02:14:39;100243.30;;;10.65;84.88
69351;BME280;57106;51.446;-2.606;2023-12-28T02:17:12;100245.29;;;10.72;85.24
69351;BME280;57106;51.446;-2.606;2023-12-28T02:19:42;100239.19;;;10.54;87.30
69351;BME280;57106;51.446;-2.606;2023-12-28T02:21:59;100258.11;;;10.61;88.33
69351;BME280;57106;51.446;-2.606;2023-12-28T02:24:22;100282.38;;;10.49;89.79
69351;BME280;57106;51.446;-2.606;2023-12-28T02:31:44;100250.51;;;10.31;92.82
69351;BME280;57106;51.446;-2.606;2023-12-28T02:34:06;100235.87;;;10.25;89.87
69351;BME280;57106;51.446;-2.606;2023-12-28T02:36:29;100240.03;;;10.22;87.64
69351;BME280;57106;51.446;-2.606;2023-12-28T02:38:58;100240.10;;;10.25;85.95
69351;BME280;57106;51.446;-2.606;2023-12-28T02:41:20;100240.42;;;10.31;85.87
69351;BME280;57106;51.446;-2.606;2023-12-28T02:43:51;100246.49;;;10.39;85.83
69351;BME280;57106;51.446;-2.606;2023-12-28T02:46:11;100243.72;;;10.41;86.85
69351;BME280;57106;51.446;-2.606;2023-12-28T02:58:19;100254.38;;;10.68;86.59
69351;BME280;57106;51.446;-2.606;2023-12-28T03:00:44;100254.21;;;10.81;86.32
69351;BME280;57106;51.446;-2.606;2023-12-28T03:03:10;100254.61;;;10.76;86.05
69351;BME280;57106;51.446;-2.606;2023-12-28T03:05:35;100258.86;;;10.79;85.96
69351;BME280;57106;51.446;-2.606;2023-12-28T03:10:27;100249.47;;;10.79;84.91
69351;BME280;57106;51.446;-2.606;2023-12-28T03:12:51;100243.92;;;10.84;83.98
69351;BME280;57106;51.446;-2.606;2023-12-28T03:20:09;100242.03;;;10.88;82.19
69351;BME280;57106;51.446;-2.606;2023-12-28T03:39:35;100254.18;;;10.71;80.90
69351;BME280;57106;51.446;-2.606;2023-12-28T03:41:57;100258.75;;;10.82;79.79
69351;BME280;57106;51.446;-2.606;2023-12-28T03:44:23;100259.61;;;10.92;79.62
69351;BME280;57106;51.446;-2.606;2023-12-28T03:46:49;100262.54;;;10.87;79.32
69351;BME280;57106;51.446;-2.606;2023-12-28T03:51:42;100267.41;;;10.97;78.54
69351;BME280;57106;51.446;-2.606;2023-12-28T03:54:05;100262.41;;;10.99;78.03
69351;BME280;57106;51.446;-2.606;2023-12-28T03:56:30;100275.50;;;10.95;77.69
69351;BME280;57106;51.446;-2.606;2023-12-28T03:58:55;100276.43;;;10.95;77.33
69351;BME280;57106;51.446;-2.606;2023-12-28T04:01:22;100276.43;;;11.02;77.79
69351;BME280;57106;51.446;-2.606;2023-12-28T04:03:48;100279.98;;;11.09;77.36
69351;BME280;57106;51.446;-2.606;2023-12-28T04:06:13;100280.07;;;11.14;77.04
69351;BME280;57106;51.446;-2.606;2023-12-28T04:08:37;100279.15;;;11.04;77.43
69351;BME280;57106;51.446;-2.606;2023-12-28T04:11:03;100271.02;;;11.03;76.96
69351;BME280;57106;51.446;-2.606;2023-12-28T04:13:28;100272.04;;;11.09;76.86
69351;BME280;57106;51.446;-2.606;2023-12-28T04:15:54;100272.56;;;11.23;76.09
69351;BME280;57106;51.446;-2.606;2023-12-28T04:18:23;100276.78;;;11.25;75.78
69351;BME280;57106;51.446;-2.606;2023-12-28T04:20:45;100278.76;;;11.16;76.11
69351;BME280;57106;51.446;-2.606;2023-12-28T04:23:10;100277.12;;;11.10;75.29
69351;BME280;57106;51.446;-2.606;2023-12-28T04:25:36;100278.65;;;11.13;75.58
69351;BME280;57106;51.446;-2.606;2023-12-28T04:28:02;100286.20;;;11.27;75.33
69351;BME280;57106;51.446;-2.606;2023-12-28T04:30:27;100296.01;;;11.31;74.97
69351;BME280;57106;51.446;-2.606;2023-12-28T04:32:58;100293.46;;;11.28;74.45
69351;BME280;57106;51.446;-2.606;2023-12-28T04:35:18;100308.29;;;11.24;74.31
69351;BME280;57106;51.446;-2.606;2023-12-28T04:37:43;100299.97;;;11.33;74.40
69351;BME280;57106;51.446;-2.606;2023-12-28T04:40:09;100305.16;;;11.32;73.79
69351;BME280;57106;51.446;-2.606;2023-12-28T04:42:34;100308.57;;;11.36;73.83
69351;BME280;57106;51.446;-2.606;2023-12-28T04:44:59;100310.73;;;11.39;73.85
69351;BME280;57106;51.446;-2.606;2023-12-28T04:47:25;100306.04;;;11.35;73.61
69351;BME280;57106;51.446;-2.606;2023-12-28T04:50:01;100306.08;;;11.44;73.05
69351;BME280;57106;51.446;-2.606;2023-12-28T04:52:17;100306.26;;;11.44;73.32
69351;BME280;57106;51.446;-2.606;2023-12-28T04:54:42;100302.90;;;11.43;73.32
69351;BME280;57106;51.446;-2.606;2023-12-28T04:57:07;100303.64;;;11.45;73.19
69351;BME280;57106;51.446;-2.606;2023-12-28T04:59:33;100301.17;;;11.46;73.30
69351;BME280;57106;51.446;-2.606;2023-12-28T05:01:58;100289.81;;;11.50;73.09
69351;BME280;57106;51.446;-2.606;2023-12-28T05:04:24;100305.82;;;11.47;73.51
69351;BME280;57106;51.446;-2.606;2023-12-28T05:06:50;100315.39;;;11.43;74.07
69351;BME280;57106;51.446;-2.606;2023-12-28T05:11:40;100318.59;;;11.29;76.15
69351;BME280;57106;51.446;-2.606;2023-12-28T05:14:06;100328.95;;;11.35;76.68
69351;BME280;57106;51.446;-2.606;2023-12-28T05:16:32;100332.00;;;11.23;78.34
69351;BME280;57106;51.446;-2.606;2023-12-28T05:19:04;100337.84;;;11.09;79.44
69351;BME280;57106;51.446;-2.606;2023-12-28T05:26:24;100334.10;;;11.12;79.69
69351;BME280;57106;51.446;-2.606;2023-12-28T05:28:40;100337.49;;;11.00;80.30
69351;BME280;57106;51.446;-2.606;2023-12-28T05:31:07;100328.72;;;11.22;79.55
69351;BME280;57106;51.446;-2.606;2023-12-28T05:33:35;100329.38;;;11.10;79.30
69351;BME280;57106;51.446;-2.606;2023-12-28T05:35:55;100333.18;;;11.10;79.12
69351;BME280;57106;51.446;-2.606;2023-12-28T05:38:21;100332.34;;;11.13;78.09
69351;BME280;57106;51.446;-2.606;2023-12-28T05:40:50;100332.56;;;11.07;78.47
69351;BME280;57106;51.446;-2.606;2023-12-28T05:45:41;100339.68;;;11.10;78.11
69351;BME280;57106;51.446;-2.606;2023-12-28T05:48:02;100350.47;;;11.17;77.84
69351;BME280;57106;51.446;-2.606;2023-12-28T05:50:29;100357.38;;;11.16;77.48
69351;BME280;57106;51.446;-2.606;2023-12-28T05:52:54;100349.80;;;11.22;77.16
69351;BME280;57106;51.446;-2.606;2023-12-28T05:55:18;100352.20;;;11.33;76.84
69351;BME280;57106;51.446;-2.606;2023-12-28T05:57:44;100358.50;;;11.31;76.31
69351;BME280;57106;51.446;-2.606;2023-12-28T06:00:10;100355.47;;;11.36;75.96
69351;BME280;57106;51.446;-2.606;2023-12-28T06:02:34;100353.64;;;11.27;75.95
69351;BME280;57106;51.446;-2.606;2023-12-28T06:05:00;100361.28;;;11.27;75.72
69351;BME280;57106;51.446;-2.606;2023-12-28T06:07:25;100364.83;;;11.07;75.50
69351;BME280;57106;51.446;-2.606;2023-12-28T06:09:51;100358.12;;;11.05;75.64
69351;BME280;57106;51.446;-2.606;2023-12-28T06:12:17;100379.86;;;11.02;74.51
69351;BME280;57106;51.446;-2.606;2023-12-28T06:14:42;100373.20;;;11.16;74.67
69351;BME280;57106;51.446;-2.606;2023-12-28T06:17:08;100371.28;;;11.07;75.26
69351;BME280;57106;51.446;-2.606;2023-12-28T06:19:33;100369.77;;;11.02;75.77
69351;BME280;57106;51.446;-2.606;2023-12-28T06:21:59;100371.18;;;11.05;76.84
69351;BME280;57106;51.446;-2.606;2023-12-28T06:24:27;100378.80;;;10.98;78.32
69351;BME280;57106;51.446;-2.606;2023-12-28T06:26:50;100390.96;;;11.14;78.55
69351;BME280;57106;51.446;-2.606;2023-12-28T06:29:15;100385.63;;;11.14;79.34
69351;BME280;57106;51.446;-2.606;2023-12-28T06:31:41;100373.12;;;10.98;80.06
69351;BME280;57106;51.446;-2.606;2023-12-28T06:34:06;100377.63;;;11.02;80.48
69351;BME280;57106;51.446;-2.606;2023-12-28T06:36:32;100378.25;;;11.08;80.23
69351;BME280;57106;51.446;-2.606;2023-12-28T06:38:57;100374.75;;;11.05;80.49
69351;BME280;57106;51.446;-2.606;2023-12-28T06:41:23;100376.55;;;11.18;80.07
69351;BME280;57106;51.446;-2.606;2023-12-28T06:43:50;100379.11;;;11.11;79.90
69351;BME280;57106;51.446;-2.606;2023-12-28T06:46:14;100385.04;;;11.17;79.15
69351;BME280;57106;51.446;-2.606;2023-12-28T06:48:39;100380.53;;;11.11;78.76
69351;BME280;57106;51.446;-2.606;2023-12-28T06:51:05;100377.91;;;11.23;77.15
69351;BME280;57106;51.446;-2.606;2023-12-28T06:53:30;100377.93;;;11.22;76.96
69351;BME280;57106;51.446;-2.606;2023-12-28T06:55:56;100378.74;;;11.08;76.56
69351;BME280;57106;51.446;-2.606;2023-12-28T06:58:21;100379.10;;;11.20;75.91
69351;BME280;57106;51.446;-2.606;2023-12-28T07:00:47;100380.06;;;11.11;75.41
69351;BME280;57106;51.446;-2.606;2023-12-28T07:03:12;100380.99;;;11.14;74.86
69351;BME280;57106;51.446;-2.606;2023-12-28T07:05:38;100377.10;;;10.97;75.42
69351;BME280;57106;51.446;-2.606;2023-12-28T07:08:04;100378.70;;;10.98;75.04
69351;BME280;57106;51.446;-2.606;2023-12-28T07:10:29;100385.84;;;11.03;74.56
69351;BME280;57106;51.446;-2.606;2023-12-28T07:12:54;100395.27;;;11.11;74.25
69351;BME280;57106;51.446;-2.606;2023-12-28T07:15:20;100397.44;;;11.04;74.45
69351;BME280;57106;51.446;-2.606;2023-12-28T07:17:48;100396.26;;;11.03;74.33
69351;BME280;57106;51.446;-2.606;2023-12-28T07:20:11;100394.48;;;11.01;74.49
69351;BME280;57106;51.446;-2.606;2023-12-28T07:22:36;100401.12;;;11.18;73.58
69351;BME280;57106;51.446;-2.606;2023-12-28T07:25:02;100398.89;;;10.99;74.00
69351;BME280;57106;51.446;-2.606;2023-12-28T07:27:28;100403.41;;;10.97;73.67
69351;BME280;57106;51.446;-2.606;2023-12-28T07:29:55;100409.13;;;10.99;73.44
69351;BME280;57106;51.446;-2.606;2023-12-28T07:34:43;100408.56;;;11.17;73.14
69351;BME280;57106;51.446;-2.606;2023-12-28T07:37:09;100404.51;;;11.19;73.11
69351;BME280;57106;51.446;-2.606;2023-12-28T07:39:34;100403.39;;;11.26;72.74
69351;BME280;57106;51.446;-2.606;2023-12-28T07:42:03;100406.80;;;11.28;72.73
69351;BME280;57106;51.446;-2.606;2023-12-28T07:44:26;100406.93;;;11.17;72.88
69351;BME280;57106;51.446;-2.606;2023-12-28T07:46:51;100410.04;;;11.35;72.59
69351;BME280;57106;51.446;-2.606;2023-12-28T07:49:17;100412.28;;;11.47;72.85
69351;BME280;57106;51.446;-2.606;2023-12-28T07:51:42;100416.51;;;11.48;73.09
69351;BME280;57106;51.446;-2.606;2023-12-28T07:54:11;100421.46;;;11.40;73.26
69351;BME280;57106;51.446;-2.606;2023-12-28T07:56:32;100423.00;;;11.24;73.54
69351;BME280;57106;51.446;-2.606;2023-12-28T07:58:57;100417.31;;;11.31;73.81
69351;BME280;57106;51.446;-2.606;2023-12-28T08:01:23;100419.40;;;11.19;74.19
69351;BME280;57106;51.446;-2.606;2023-12-28T08:03:49;100417.35;;;11.22;73.70
69351;BME280;57106;51.446;-2.606;2023-12-28T08:06:14;100423.18;;;11.16;73.58
69351;BME280;57106;51.446;-2.606;2023-12-28T08:08:40;100428.96;;;11.17;73.50
69351;BME280;57106;51.446;-2.606;2023-12-28T08:11:05;100424.04;;;11.15;73.64
69351;BME280;57106;51.446;-2.606;2023-12-28T08:35:20;100440.72;;;10.73;76.16
69351;BME280;57106;51.446;-2.606;2023-12-28T08:38:12;100443.01;;;10.88;76.17
69351;BME280;57106;51.446;-2.606;2023-12-28T08:42:36;100450.72;;;10.86;75.91
69351;BME280;57106;51.446;-2.606;2023-12-28T08:45:02;100446.37;;;10.74;76.20
69351;BME280;57106;51.446;-2.606;2023-12-28T08:47:28;100443.81;;;10.86;75.83
69351;BME280;57106;51.446;-2.606;2023-12-28T08:49:59;100445.49;;;10.76;76.00
69351;BME280;57106;51.446;-2.606;2023-12-28T08:52:19;100443.65;;;10.74;75.98
69351;BME280;57106;51.446;-2.606;2023-12-28T08:54:44;100441.72;;;10.69;75.95
69351;BME280;57106;51.446;-2.606;2023-12-28T08:57:10;100440.41;;;10.67;75.57
69351;BME280;57106;51.446;-2.606;2023-12-28T08:59:36;100446.85;;;10.71;75.32
69351;BME280;57106;51.446;-2.606;2023-12-28T09:02:00;100444.69;;;10.71;75.41
69351;BME280;57106;51.446;-2.606;2023-12-28T09:04:26;100438.24;;;10.79;75.41
69351;BME280;57106;51.446;-2.606;2023-12-28T09:23:55;100436.05;;;11.17;76.11
69351;BME280;57106;51.446;-2.606;2023-12-28T09:48:06;100447.94;;;10.81;77.19
69351;BME280;57106;51.446;-2.606;2023-12-28T09:50:31;100453.92;;;10.87;77.19
69351;BME280;57106;51.446;-2.606;2023-12-28T09:52:57;100443.77;;;11.02;76.60
69351;BME280;57106;51.446;-2.606;2023-12-28T10:00:14;100435.03;;;10.82;76.15
69351;BME280;57106;51.446;-2.606;2023-12-28T10:02:40;100436.12;;;10.91;76.14
69351;BME280;57106;51.446;-2.606;2023-12-28T10:05:06;100432.14;;;10.93;75.54
69351;BME280;57106;51.446;-2.606;2023-12-28T10:07:31;100428.50;;;11.02;75.35
69351;BME280;57106;51.446;-2.606;2023-12-28T10:09:56;100422.28;;;11.02;75.04
69351;BME280;57106;51.446;-2.606;2023-12-28T10:12:23;100424.81;;;11.13;74.56
69351;BME280;57106;51.446;-2.606;2023-12-28T10:14:46;100422.27;;;10.97;74.68
69351;BME280;57106;51.446;-2.606;2023-12-28T10:17:12;100423.83;;;11.00;74.77
69351;BME280;57106;51.446;-2.606;2023-12-28T10:19:37;100426.65;;;10.91;75.07
69351;BME280;57106;51.446;-2.606;2023-12-28T10:22:03;100426.60;;;11.02;74.82
69351;BME280;57106;51.446;-2.606;2023-12-28T10:24:28;100424.18;;;10.99;75.01
69351;BME280;57106;51.446;-2.606;2023-12-28T10:26:54;100427.51;;;11.01;74.75
69351;BME280;57106;51.446;-2.606;2023-12-28T10:29:19;100427.98;;;11.06;74.70
69351;BME280;57106;51.446;-2.606;2023-12-28T10:31:45;100421.22;;;11.23;74.29
69351;BME280;57106;51.446;-2.606;2023-12-28T10:34:10;100410.19;;;11.23;74.31
69351;BME280;57106;51.446;-2.606;2023-12-28T10:36:37;100406.34;;;11.20;73.84
69351;BME280;57106;51.446;-2.606;2023-12-28T10:39:04;100406.95;;;11.29;73.55
69351;BME280;57106;51.446;-2.606;2023-12-28T10:41:29;100410.53;;;11.29;73.79
69351;BME280;57106;51.446;-2.606;2023-12-28T10:43:58;100398.54;;;11.35;73.39
69351;BME280;57106;51.446;-2.606;2023-12-28T10:46:24;100398.51;;;11.41;73.39
69351;BME280;57106;51.446;-2.606;2023-12-28T10:48:45;100388.82;;;11.52;73.06
69351;BME280;57106;51.446;-2.606;2023-12-28T10:51:13;100390.99;;;11.44;72.90
69351;BME280;57106;51.446;-2.606;2023-12-28T10:53:39;100397.33;;;11.50;72.76
69351;BME280;57106;51.446;-2.606;2023-12-28T11:00:59;100393.39;;;11.55;73.04
69351;BME280;57106;51.446;-2.606;2023-12-28T11:03:23;100398.76;;;11.54;72.14
69351;BME280;57106;51.446;-2.606;2023-12-28T11:05:43;100401.79;;;11.51;72.50
69351;BME280;57106;51.446;-2.606;2023-12-28T11:08:09;100391.32;;;11.63;72.25
69351;BME280;57106;51.446;-2.606;2023-12-28T11:12:59;100382.41;;;11.74;71.64
69351;BME280;57106;51.446;-2.606;2023-12-28T11:15:26;100374.76;;;11.79;71.79
69351;BME280;57106;51.446;-2.606;2023-12-28T11:17:50;100386.96;;;11.76;72.00
69351;BME280;57106;51.446;-2.606;2023-12-28T11:20:15;100378.90;;;11.73;72.32
69351;BME280;57106;51.446;-2.606;2023-12-28T11:22:41;100376.58;;;11.68;72.20
69351;BME280;57106;51.446;-2.606;2023-12-28T11:27:37;100372.16;;;11.70;72.42
69351;BME280;57106;51.446;-2.606;2023-12-28T11:29:58;100372.17;;;11.80;72.45
69351;BME280;57106;51.446;-2.606;2023-12-28T11:34:58;100370.34;;;11.85;72.00
69351;BME280;57106;51.446;-2.606;2023-12-28T11:37:16;100373.86;;;11.96;72.00
69351;BME280;57106;51.446;-2.606;2023-12-28T11:39:38;100367.35;;;11.92;72.56
69351;BME280;57106;51.446;-2.606;2023-12-28T11:42:05;100372.10;;;12.02;72.44
69351;BME280;57106;51.446;-2.606;2023-12-28T11:44:29;100374.82;;;11.95;72.13
69351;BME280;57106;51.446;-2.606;2023-12-28T11:46:55;100371.51;;;12.02;72.00
69351;BME280;57106;51.446;-2.606;2023-12-28T11:49:27;100374.92;;;12.08;72.22
69351;BME280;57106;51.446;-2.606;2023-12-28T11:56:37;100371.81;;;12.07;73.41
69351;BME280;57106;51.446;-2.606;2023-12-28T11:59:02;100370.99;;;12.19;73.52
69351;BME280;57106;51.446;-2.606;2023-12-28T12:01:28;100358.53;;;12.06;72.75
69351;BME280;57106;51.446;-2.606;2023-12-28T12:03:54;100348.94;;;12.05;73.26
69351;BME280;57106;51.446;-2.606;2023-12-28T12:06:19;100347.81;;;12.06;73.06
69351;BME280;57106;51.446;-2.606;2023-12-28T12:08:45;100349.28;;;11.95;72.91
69351;BME280;57106;51.446;-2.606;2023-12-28T12:11:09;100342.10;;;11.98;72.89
69351;BME280;57106;51.446;-2.606;2023-12-28T12:13:36;100351.51;;;11.96;73.13
69351;BME280;57106;51.446;-2.606;2023-12-28T12:16:00;100347.65;;;12.02;72.78
69351;BME280;57106;51.446;-2.606;2023-12-28T12:25:45;100333.87;;;11.94;73.05
69351;BME280;57106;51.446;-2.606;2023-12-28T12:28:08;100325.43;;;12.11;72.62
69351;BME280;57106;51.446;-2.606;2023-12-28T12:30:33;100325.52;;;12.12;72.60
69351;BME280;57106;51.446;-2.606;2023-12-28T12:32:59;100328.60;;;12.28;71.93
69351;BME280;57106;51.446;-2.606;2023-12-28T12:35:24;100331.05;;;12.25;72.00
69351;BME280;57106;51.446;-2.606;2023-12-28T12:37:50;100324.42;;;12.25;71.88
69351;BME280;57106;51.446;-2.606;2023-12-28T12:40:17;100319.02;;;12.15;71.85
69351;BME280;57106;51.446;-2.606;2023-12-28T12:42:41;100309.13;;;12.11;72.01
69351;BME280;57106;51.446;-2.606;2023-12-28T12:45:07;100306.58;;;12.14;71.27
69351;BME280;57106;51.446;-2.606;2023-12-28T12:47:33;100302.45;;;12.10;71.43
69351;BME280;57106;51.446;-2.606;2023-12-28T12:49:58;100302.00;;;12.21;71.43
69351;BME280;57106;51.446;-2.606;2023-12-28T12:52:25;100295.34;;;12.34;71.10
69351;BME280;57106;51.446;-2.606;2023-12-28T12:57:14;100290.40;;;12.20;71.06
69351;BME280;57106;51.446;-2.606;2023-12-28T13:02:17;100276.91;;;12.30;70.16
69351;BME280;57106;51.446;-2.606;2023-12-28T13:06:56;100282.36;;;12.30;69.70
69351;BME280;57106;51.446;-2.606;2023-12-28T13:09:22;100280.43;;;12.39;69.50
69351;BME280;57106;51.446;-2.606;2023-12-28T13:11:49;100276.63;;;12.32;69.85
69351;BME280;57106;51.446;-2.606;2023-12-28T13:53:03;100283.91;;;11.98;77.19
69351;BME280;57106;51.446;-2.606;2023-12-28T14:14:52;100285.21;;;12.10;78.15
69351;BME280;57106;51.446;-2.606;2023-12-28T14:17:16;100275.35;;;11.93;78.76
69351;BME280;57106;51.446;-2.606;2023-12-28T14:19:41;100271.74;;;11.86;78.32
69351;BME280;57106;51.446;-2.606;2023-12-28T14:39:08;100259.88;;;11.91;78.10
69351;BME280;57106;51.446;-2.606;2023-12-28T14:41:31;100264.18;;;11.70;79.78
69351;BME280;57106;51.446;-2.606;2023-12-28T14:43:56;100273.99;;;11.67;81.09
69351;BME280;57106;51.446;-2.606;2023-12-28T14:46:25;100278.41;;;11.59;81.78
69351;BME280;57106;51.446;-2.606;2023-12-28T14:48:48;100289.30;;;11.60;82.71
69351;BME280;57106;51.446;-2.606;2023-12-28T14:51:12;100295.07;;;11.61;83.82
69351;BME280;57106;51.446;-2.606;2023-12-28T14:53:38;100286.68;;;11.61;84.47
69351;BME280;57106;51.446;-2.606;2023-12-28T14:56:04;100303.51;;;11.63;84.54
69351;BME280;57106;51.446;-2.606;2023-12-28T14:58:29;100298.24;;;11.35;86.48
69351;BME280;57106;51.446;-2.606;2023-12-28T15:00:55;100294.49;;;11.30;87.31
69351;BME280;57106;51.446;-2.606;2023-12-28T15:03:20;100287.02;;;11.11;88.23
69351;BME280;57106;51.446;-2.606;2023-12-28T15:05:45;100296.55;;;11.08;89.12
69351;BME280;57106;51.446;-2.606;2023-12-28T15:08:10;100302.03;;;11.13;88.57
69351;BME280;57106;51.446;-2.606;2023-12-28T15:10:36;100290.39;;;10.93;87.64
69351;BME280;57106;51.446;-2.606;2023-12-28T15:13:06;100308.21;;;10.82;87.71
69351;BME280;57106;51.446;-2.606;2023-12-28T15:15:32;100305.14;;;10.66;88.08
69351;BME280;57106;51.446;-2.606;2023-12-28T15:17:52;100312.04;;;10.53;88.53
69351;BME280;57106;51.446;-2.606;2023-12-28T15:20:18;100325.06;;;10.46;88.67
69351;BME280;57106;51.446;-2.606;2023-12-28T15:22:43;100334.77;;;10.45;88.30
69351;BME280;57106;51.446;-2.606;2023-12-28T15:25:09;100331.73;;;10.38;88.45
69351;BME280;57106;51.446;-2.606;2023-12-28T15:27:34;100338.26;;;10.33;89.36
69351;BME280;57106;51.446;-2.606;2023-12-28T15:29:59;100341.65;;;10.26;88.89
69351;BME280;57106;51.446;-2.606;2023-12-28T15:32:25;100340.23;;;10.14;89.32
69351;BME280;57106;51.446;-2.606;2023-12-28T15:42:07;100331.15;;;10.08;87.66
69351;BME280;57106;51.446;-2.606;2023-12-28T15:44:35;100327.49;;;9.98;87.21
69351;BME280;57106;51.446;-2.606;2023-12-28T15:46:58;100332.84;;;10.12;87.34
69351;BME280;57106;51.446;-2.606;2023-12-28T15:49:27;100331.68;;;10.11;87.15
69351;BME280;57106;51.446;-2.606;2023-12-28T16:30:48;100347.62;;;10.75;82.72
69351;BME280;57106;51.446;-2.606;2023-12-28T16:33:04;100340.36;;;10.84;82.22
69351;BME280;57106;51.446;-2.606;2023-12-28T16:37:54;100348.63;;;11.10;81.62
69351;BME280;57106;51.446;-2.606;2023-12-28T16:47:42;100338.28;;;10.89;82.68
69351;BME280;57106;51.446;-2.606;2023-12-28T16:52:28;100340.27;;;10.93;81.93
69351;BME280;57106;51.446;-2.606;2023-12-28T17:02:25;100349.20;;;10.90;80.82
69351;BME280;57106;51.446;-2.606;2023-12-28T17:14:18;100332.81;;;10.87;79.07
69351;BME280;57106;51.446;-2.606;2023-12-28T17:16:43;100335.12;;;10.84;78.59
69351;BME280;57106;51.446;-2.606;2023-12-28T17:19:09;100337.87;;;10.86;78.56
69351;BME280;57106;51.446;-2.606;2023-12-28T17:21:40;100339.64;;;10.86;78.95
69351;BME280;57106;51.446;-2.606;2023-12-28T17:24:00;100334.85;;;10.89;79.04
69351;BME280;57106;51.446;-2.606;2023-12-28T17:26:27;100341.71;;;10.91;78.74
69351;BME280;57106;51.446;-2.606;2023-12-28T17:28:58;100335.82;;;10.96;78.75
69351;BME280;57106;51.446;-2.606;2023-12-28T17:31:23;100336.62;;;10.98;78.35
69351;BME280;57106;51.446;-2.606;2023-12-28T17:33:48;100340.10;;;10.95;78.24
69351;BME280;57106;51.446;-2.606;2023-12-28T17:36:09;100339.84;;;10.95;78.02
69351;BME280;57106;51.446;-2.606;2023-12-28T17:38:34;100330.56;;;10.88;78.34
69351;BME280;57106;51.446;-2.606;2023-12-28T17:40:59;100332.82;;;10.87;78.13
69351;BME280;57106;51.446;-2.606;2023-12-28T17:43:39;100343.26;;;10.88;78.46
69351;BME280;57106;51.446;-2.606;2023-12-28T17:45:55;100344.65;;;10.76;78.64
69351;BME280;57106;51.446;-2.606;2023-12-28T17:48:25;100355.90;;;10.98;78.06
69351;BME280;57106;51.446;-2.606;2023-12-28T17:50:41;100351.56;;;11.06;77.30
69351;BME280;57106;51.446;-2.606;2023-12-28T17:53:06;100349.39;;;10.95;77.40
69351;BME280;57106;51.446;-2.606;2023-12-28T17:55:31;100355.60;;;11.09;77.70
69351;BME280;57106;51.446;-2.606;2023-12-28T17:57:56;100354.83;;;11.17;77.12
69351;BME280;57106;51.446;-2.606;2023-12-28T18:00:26;100356.34;;;11.03;77.74
69351;BME280;57106;51.446;-2.606;2023-12-28T18:02:48;100356.92;;;10.92;77.93
69351;BME280;57106;51.446;-2.606;2023-12-28T18:05:13;100354.52;;;10.94;77.81
69351;BME280;57106;51.446;-2.606;2023-12-28T18:07:48;100360.97;;;11.10;77.52
69351;BME280;57106;51.446;-2.606;2023-12-28T18:10:04;100360.79;;;11.11;77.34
69351;BME280;57106;51.446;-2.606;2023-12-28T18:48:56;100400.78;;;10.01;83.18
69351;BME280;57106;51.446;-2.606;2023-12-28T19:54:23;100443.54;;;9.72;79.95
69351;BME280;57106;51.446;-2.606;2023-12-28T19:59:18;100441.48;;;9.71;80.49
69351;BME280;57106;51.446;-2.606;2023-12-28T20:01:43;100438.56;;;9.76;79.93
69351;BME280;57106;51.446;-2.606;2023-12-28T20:04:04;100425.40;;;9.82;79.60
69351;BME280;57106;51.446;-2.606;2023-12-28T20:06:30;100421.90;;;10.11;79.05
69351;BME280;57106;51.446;-2.606;2023-12-28T20:08:55;100421.37;;;10.13;78.25
69351;BME280;57106;51.446;-2.606;2023-12-28T20:11:21;100428.26;;;10.09;78.12
69351;BME280;57106;51.446;-2.606;2023-12-28T20:13:47;100422.69;;;10.17;77.65
69351;BME280;57106;51.446;-2.606;2023-12-28T20:16:12;100423.01;;;10.11;77.76
69351;BME280;57106;51.446;-2.606;2023-12-28T20:18:40;100423.02;;;10.32;77.25
69351;BME280;57106;51.446;-2.606;2023-12-28T20:21:03;100421.16;;;10.17;77.10
69351;BME280;57106;51.446;-2.606;2023-12-28T20:23:28;100420.39;;;10.26;77.05
69351;BME280;57106;51.446;-2.606;2023-12-28T20:25:53;100422.89;;;10.27;76.96
69351;BME280;57106;51.446;-2.606;2023-12-28T20:28:19;100423.73;;;10.17;76.72
69351;BME280;57106;51.446;-2.606;2023-12-28T20:30:47;100429.04;;;10.09;77.05
69351;BME280;57106;51.446;-2.606;2023-12-28T20:33:10;100426.40;;;10.16;77.07
69351;BME280;57106;51.446;-2.606;2023-12-28T20:35:36;100437.40;;;10.20;76.63
69351;BME280;57106;51.446;-2.606;2023-12-28T20:38:01;100446.64;;;10.26;76.72
69351;BME280;57106;51.446;-2.606;2023-12-28T20:40:26;100442.27;;;10.23;76.60
69351;BME280;57106;51.446;-2.606;2023-12-28T20:42:52;100448.99;;;10.21;76.80
69351;BME280;57106;51.446;-2.606;2023-12-28T20:45:17;100443.83;;;10.09;77.26
69351;BME280;57106;51.446;-2.606;2023-12-28T20:47:43;100448.77;;;10.18;77.02
69351;BME280;57106;51.446;-2.606;2023-12-28T20:50:09;100445.68;;;10.14;76.86
69351;BME280;57106;51.446;-2.606;2023-12-28T20:52:34;100445.82;;;10.25;76.59